Airfield :
LOGIN :

Register | Disclaimer

   EN    FR    IT 

 










Legend :    VFR   Marginal VFR   IFR   Intensive IFR   Very Intensive IFR
Visi :
Ceiling :
>= 8 km
>= 3000ft
5 to 8 km
1000 to 3000 ft
1500m to 5 km
500 to 1000 ft
800 to 1500m
200 to 500 ft
< 800m
< 200 ft
Symbols :   Thunderstorms  Fog  Heavy snow  Heavy precipitations  Wind > 20 kt
SIGMETs :     Misc.  Thunderstorms  Icing  Turbulence  Mountain Waves  Volcanic Ashes







- Airport Elevation : 863 ft
- IATA code : ZAZ


LEZG - Zaragoza Aragon

CURRENT METAR :
  • 261230Z 30017KT 280V340 CAVOK 28/12 Q1015

EXPIRED METARs :
  • 261200Z 30013KT 260V340 CAVOK 28/11 Q1016
  • 261130Z 30017KT 270V330 CAVOK 27/11 Q1016
  • 261100Z 30018KT 260V330 CAVOK 26/11 Q1016
  • 261030Z 30015KT 270V340 CAVOK 25/11 Q1017
  • 261000Z 30014KT 250V330 CAVOK 24/11 Q1017
  • 260930Z 30011KT 260V350 CAVOK 23/11 Q1017

TAF TAF LEZG
Valid from the 26 at 12:00 until the 27 at 12:00 UTC


261100Z 2612/2712 30018KT 9999 FEW050 TX29/2614Z TN19/2706Z
TEMPO 2612/2619 31018G28KT
BECMG 2620/2623 28009KT
No reported NOTAMs for that airfield.



MET'MAP, your aeronautical weather chart ! - Copyright ORBIFLY December 2007 - Disclaimer

ORBIFLY MET'MAP TEAM :

Programming & Development : Alexandra Zaïnal
Concept & Development : Baudouin d'Aumeries
Co-Development & Prog : Marc-Olivier Méhu
Technical & hardware support : Manuel Goepfert

Contact : metmap@orbifly.com




SOURCES & CREDITS :

   NOAA